Time;durP1;ratioP1;P1;durP2;ratioP2;P2;SDS_P1;SDS_P2;PMS_P1;PMS_P2;Temp;Humidity;BMP_temperature;BMP_pressure;BME280_temperature;BME280_humidity;BME280_pressure;Samples;Min_cycle;Max_cycle;Signal;HPM_P1;HPM_P2
2022/01/11 00:01:53;;;;;;;76.80;33.67;;;;;;;-4.86;100.00;101199.56;5119640;28;20036;-81
2022/01/11 00:04:37;;;;;;;82.28;34.25;;;;;;;-4.91;100.00;101191.63;5116636;28;20455;-81
2022/01/11 00:07:23;;;;;;;72.32;31.13;;;;;;;-4.86;100.00;101190.22;5120345;28;20069;-81
2022/01/11 00:10:09;;;;;;;71.85;29.20;;;;;;;-4.95;100.00;101189.69;5105144;28;20040;-81
2022/01/11 00:12:55;;;;;;;69.10;30.73;;;;;;;-4.93;100.00;101188.97;5120268;28;20043;-81
2022/01/11 00:15:39;;;;;;;70.53;30.98;;;;;;;-4.95;100.00;101193.09;5120368;28;20047;-81
2022/01/11 00:18:24;;;;;;;76.82;31.80;;;;;;;-5.03;100.00;101196.03;5105125;28;20089;-81
2022/01/11 00:21:10;;;;;;;73.70;32.63;;;;;;;-5.10;100.00;101191.31;5104976;28;20043;-81
2022/01/11 00:27:08;;;;;;;89.57;36.33;;;;;;;-5.14;100.00;101195.38;5119818;28;20376;-81
2022/01/11 00:29:55;;;;;;;120.55;45.78;;;;;;;-5.28;100.00;101202.19;5119793;28;20043;-81
2022/01/11 00:32:49;;;;;;;100.57;40.25;;;;;;;-5.21;100.00;101206.00;5104721;28;20040;-81
2022/01/11 00:36:07;;;;;;;100.70;38.97;;;;;;;-5.27;100.00;101201.41;5104887;28;20355;-81
2022/01/11 00:38:44;;;;;;;114.55;39.92;;;;;;;-5.28;100.00;101212.41;5104723;28;20423;-82
2022/01/11 00:41:29;;;;;;;127.32;44.70;;;;;;;-5.34;100.00;101201.81;5073779;28;20048;-82
2022/01/11 00:44:13;;;;;;;116.90;40.92;;;;;;;-5.31;100.00;101214.78;5119557;28;20035;-81
2022/01/11 00:46:58;;;;;;;105.13;37.63;;;;;;;-5.42;100.00;101218.38;5090056;28;20069;-82
2022/01/11 00:49:42;;;;;;;87.32;34.60;;;;;;;-5.44;100.00;101213.16;5104412;28;20182;-82
2022/01/11 00:52:28;;;;;;;79.35;31.83;;;;;;;-5.44;100.00;101217.38;5118934;28;20051;-82
2022/01/11 00:55:15;;;;;;;85.80;34.10;;;;;;;-5.46;100.00;101224.97;5117394;28;20058;-82
2022/01/11 00:58:02;;;;;;;84.43;32.40;;;;;;;-5.50;100.00;101217.00;5088848;28;20043;-82
2022/01/11 01:00:47;;;;;;;85.05;34.03;;;;;;;-5.50;100.00;101224.66;5088917;28;20035;-82
2022/01/11 01:03:33;;;;;;;77.45;32.70;;;;;;;-5.63;100.00;101221.34;5117981;28;20482;-82
2022/01/11 01:06:18;;;;;;;88.78;34.75;;;;;;;-5.65;100.00;101219.50;5088718;28;20031;-82
2022/01/11 01:09:03;;;;;;;96.22;34.15;;;;;;;-5.69;100.00;101220.09;5102913;28;20048;-82
2022/01/11 01:11:51;;;;;;;75.75;33.15;;;;;;;-5.71;100.00;101232.75;5102708;28;20048;-82
2022/01/11 01:14:37;;;;;;;68.95;30.50;;;;;;;-5.78;100.00;101220.41;5088742;28;20108;-82
2022/01/11 01:17:22;;;;;;;74.60;31.42;;;;;;;-5.79;100.00;101226.28;5088687;28;20343;-82
2022/01/11 01:20:08;;;;;;;76.38;32.03;;;;;;;-5.74;100.00;101231.69;5088339;28;20043;-82
2022/01/11 01:22:52;;;;;;;91.50;35.45;;;;;;;-5.73;100.00;101234.31;5088241;28;20047;-82
2022/01/11 01:25:37;;;;;;;78.82;30.98;;;;;;;-5.75;100.00;101233.38;5102432;28;20047;-83
2022/01/11 01:28:22;;;;;;;73.13;32.25;;;;;;;-5.82;100.00;101235.41;5102604;28;20043;-82
2022/01/11 01:31:06;;;;;;;78.40;33.72;;;;;;;-5.92;100.00;101242.47;5131145;28;20046;-82
2022/01/11 01:33:51;;;;;;;79.07;33.83;;;;;;;-5.83;100.00;101256.63;5102322;28;20085;-82
2022/01/11 01:36:36;;;;;;;83.60;33.90;;;;;;;-5.94;100.00;101241.56;5117517;28;20505;-83
2022/01/11 01:39:20;;;;;;;79.35;33.63;;;;;;;-5.89;100.00;101252.00;5088118;28;20051;-83
2022/01/11 01:42:07;;;;;;;85.47;34.15;;;;;;;-5.98;100.00;101254.00;5087957;28;20501;-83
2022/01/11 01:44:52;;;;;;;81.38;32.17;;;;;;;-5.94;100.00;101248.34;5102131;28;20126;-83
2022/01/11 01:47:37;;;;;;;81.88;33.30;;;;;;;-5.97;100.00;101235.38;5102275;28;20032;-83
2022/01/11 01:50:21;;;;;;;96.75;37.30;;;;;;;-5.97;100.00;101255.78;5117365;28;20140;-83
2022/01/11 01:53:10;;;;;;;115.03;39.38;;;;;;;-6.05;100.00;101256.94;5062870;28;1128304;-83
2022/01/11 01:55:55;;;;;;;110.85;40.80;;;;;;;-6.06;100.00;101248.41;5102934;28;20050;-83
2022/01/11 01:58:42;;;;;;;105.13;38.60;;;;;;;-6.18;100.00;101245.94;5102965;28;20039;-83
2022/01/11 02:01:27;;;;;;;98.55;38.95;;;;;;;-6.10;100.00;101261.78;5088663;28;20039;-83
2022/01/11 02:04:12;;;;;;;96.03;36.72;;;;;;;-6.08;100.00;101259.31;5088471;28;20031;-83
2022/01/11 02:06:57;;;;;;;94.25;38.70;;;;;;;-6.20;100.00;101239.88;5102815;28;20044;-83
2022/01/11 02:09:41;;;;;;;93.18;38.40;;;;;;;-6.08;100.00;101269.50;5103024;28;20039;-83
2022/01/11 02:12:27;;;;;;;87.85;35.28;;;;;;;-6.07;100.00;101261.09;5085908;28;20075;-83
2022/01/11 02:15:12;;;;;;;83.93;33.95;;;;;;;-6.14;100.00;101257.25;5102640;28;20359;-83
2022/01/11 02:18:11;;;;;;;89.53;35.60;;;;;;;-6.25;100.00;101243.78;5085673;28;20108;-83
2022/01/11 02:20:58;;;;;;;85.90;34.85;;;;;;;-6.13;100.00;101265.00;5088012;28;20107;-83
2022/01/11 02:23:50;;;;;;;80.43;33.13;;;;;;;-6.13;100.00;101256.47;5102423;28;20428;-83
2022/01/11 02:26:36;;;;;;;76.80;32.65;;;;;;;-6.26;100.00;101243.72;5105304;27;20081;-84
2022/01/11 02:29:21;;;;;;;73.22;31.98;;;;;;;-6.35;100.00;101247.41;5102554;28;20428;-83
2022/01/11 02:32:07;;;;;;;82.88;33.72;;;;;;;-6.26;100.00;101256.47;5088053;28;20105;-83
2022/01/11 02:34:52;;;;;;;93.00;37.65;;;;;;;-6.30;100.00;101260.47;5088010;28;20071;-83
2022/01/11 02:37:43;;;;;;;82.13;33.75;;;;;;;-6.30;100.00;101260.47;5085115;28;20058;-83
2022/01/11 02:40:31;;;;;;;87.00;35.83;;;;;;;-6.26;100.00;101262.44;5088475;28;20111;-83
2022/01/11 02:43:16;;;;;;;80.53;33.03;;;;;;;-6.25;100.00;101261.66;5131126;27;20101;-83
2022/01/11 02:46:01;;;;;;;88.07;34.58;;;;;;;-6.30;100.00;101269.78;5130982;27;20040;-83
2022/01/11 02:48:51;;;;;;;84.38;35.33;;;;;;;-6.30;100.00;101274.88;5088213;28;20040;-83
2022/01/11 02:51:36;;;;;;;91.80;35.72;;;;;;;-6.38;100.00;101265.06;5101983;28;20044;-83
2022/01/11 02:54:22;;;;;;;89.05;38.00;;;;;;;-6.49;100.00;101260.94;5118932;27;20101;-83
2022/01/11 02:57:16;;;;;;;86.70;36.08;;;;;;;-6.26;100.00;101293.03;5101875;28;20043;-84
2022/01/11 03:00:05;;;;;;;79.53;32.78;;;;;;;-6.30;100.00;101285.97;5101769;28;20321;-84
2022/01/11 03:02:50;;;;;;;80.90;31.13;;;;;;;-6.29;100.00;101289.41;5130678;27;20039;-83
2022/01/11 03:05:57;;;;;;;78.15;32.53;;;;;;;-6.29;100.00;101282.63;5101619;28;20059;-84
2022/01/11 03:08:46;;;;;;;76.63;32.30;;;;;;;-6.27;100.00;101293.84;5101700;28;20063;-84
2022/01/11 03:11:35;;;;;;;78.50;32.80;;;;;;;-6.38;100.00;101282.91;5071006;28;20467;-83
2022/01/11 03:14:22;;;;;;;74.75;33.97;;;;;;;-6.31;100.00;101290.97;5101909;28;20044;-84
2022/01/11 03:17:08;;;;;;;79.78;33.63;;;;;;;-6.30;100.00;101296.19;5101564;28;20044;-84
2022/01/11 03:19:53;;;;;;;77.03;32.40;;;;;;;-6.25;100.00;101296.47;5101442;28;20050;-84
2022/01/11 03:22:38;;;;;;;76.20;34.88;;;;;;;-6.38;100.00;101277.81;5118495;27;20120;-84
2022/01/11 03:25:25;;;;;;;71.32;31.73;;;;;;;-6.50;100.00;101269.38;5130288;27;20040;-84
2022/01/11 03:28:10;;;;;;;90.43;36.72;;;;;;;-6.41;100.00;101292.03;5101456;28;20044;-84
2022/01/11 03:30:55;;;;;;;77.85;35.30;;;;;;;-6.31;100.00;101291.84;5101389;28;20347;-84
2022/01/11 03:33:40;;;;;;;81.45;34.58;;;;;;;-6.35;100.00;101297.53;5101226;28;20432;-84
2022/01/11 03:36:25;;;;;;;77.05;33.03;;;;;;;-6.30;100.00;101303.84;5101350;28;20039;-84
2022/01/11 03:39:10;;;;;;;83.93;34.70;;;;;;;-6.29;100.00;101299.63;5101409;28;20047;-84
2022/01/11 03:41:55;;;;;;;77.10;34.85;;;;;;;-6.29;100.00;101295.38;5101207;28;20039;-84
2022/01/11 03:44:39;;;;;;;82.97;36.00;;;;;;;-6.39;100.00;101296.44;5101227;28;20044;-84
2022/01/11 03:47:24;;;;;;;86.07;36.15;;;;;;;-6.45;100.00;101290.94;5087203;28;20043;-84
2022/01/11 03:50:10;;;;;;;80.22;35.13;;;;;;;-6.48;100.00;101295.84;5101264;28;20035;-84
2022/01/11 03:53:05;;;;;;;86.30;37.83;;;;;;;-6.51;100.00;101310.03;5116031;28;20060;-84
2022/01/11 03:58:35;;;;;;;94.05;39.13;;;;;;;-6.72;100.00;101289.97;5101191;28;20044;-84
2022/01/11 04:01:22;;;;;;;97.18;40.63;;;;;;;-6.57;100.00;101325.81;5087181;28;20043;-83
2022/01/11 04:04:09;;;;;;;96.72;43.53;;;;;;;-6.63;100.00;101317.75;5101009;28;20032;-84
2022/01/11 04:06:54;;;;;;;95.30;38.20;;;;;;;-6.53;100.00;101316.69;5130010;28;20141;-84
2022/01/11 04:09:38;;;;;;;86.10;36.75;;;;;;;-6.51;100.00;101320.25;5115505;28;20040;-84
2022/01/11 04:12:24;;;;;;;92.45;38.90;;;;;;;-6.56;100.00;101334.34;5101041;28;20039;-84
2022/01/11 04:15:09;;;;;;;83.78;35.35;;;;;;;-6.55;100.00;101331.03;5100912;28;20180;-84
2022/01/11 04:17:54;;;;;;;92.07;37.92;;;;;;;-6.61;100.00;101318.75;5100986;28;20036;-84
2022/01/11 04:20:38;;;;;;;92.78;38.95;;;;;;;-6.62;100.00;101334.81;5101197;28;20036;-84
2022/01/11 04:23:25;;;;;;;93.32;38.92;;;;;;;-6.57;100.00;101332.56;5129922;28;20039;-84
2022/01/11 04:26:10;;;;;;;96.90;39.38;;;;;;;-6.67;100.00;101338.72;5100977;28;20039;-84
2022/01/11 04:28:57;;;;;;;95.40;38.55;;;;;;;-6.61;100.00;101336.59;5114883;28;20043;-85
2022/01/11 04:31:42;;;;;;;86.95;37.13;;;;;;;-6.53;100.00;101348.19;5115273;28;20447;-84
2022/01/11 04:34:32;;;;;;;93.15;36.55;;;;;;;-6.56;100.00;101331.78;5087445;28;20047;-84
2022/01/11 04:37:17;;;;;;;83.75;38.45;;;;;;;-6.65;100.00;101332.06;5101026;28;20059;-84
2022/01/11 04:40:02;;;;;;;90.95;36.72;;;;;;;-6.53;100.00;101348.19;5115943;28;20046;-84
2022/01/11 04:42:51;;;;;;;95.85;38.63;;;;;;;-6.60;100.00;101348.53;5115825;28;20043;-85
2022/01/11 04:45:36;;;;;;;92.18;39.25;;;;;;;-6.59;100.00;101358.84;5088661;28;20035;-84
2022/01/11 04:48:20;;;;;;;99.00;40.90;;;;;;;-6.65;100.00;101355.88;5104563;28;20096;-85
2022/01/11 04:51:07;;;;;;;91.38;37.05;;;;;;;-6.68;100.00;101358.22;5104423;28;20051;-84
2022/01/11 04:53:52;;;;;;;92.70;38.47;;;;;;;-6.66;100.00;101363.41;5098163;28;20052;-84
2022/01/11 04:56:38;;;;;;;92.75;38.58;;;;;;;-6.68;100.00;101367.53;5084120;28;20356;-84
2022/01/11 04:59:24;;;;;;;101.75;40.45;;;;;;;-6.76;100.00;101364.44;5098413;28;20046;-85
2022/01/11 05:02:08;;;;;;;98.68;37.55;;;;;;;-6.77;100.00;101360.13;5098941;28;20436;-85
2022/01/11 05:04:55;;;;;;;97.22;38.72;;;;;;;-6.83;100.00;101369.91;5097989;28;20074;-85
2022/01/11 05:07:40;;;;;;;95.38;38.72;;;;;;;-6.93;100.00;101373.47;5098120;28;20048;-84
2022/01/11 05:10:24;;;;;;;105.95;45.28;;;;;;;-6.98;100.00;101374.84;5098199;28;20047;-84
2022/01/11 05:13:15;;;;;;;89.68;38.42;;;;;;;-6.91;100.00;101373.59;5097906;28;20036;-83
2022/01/11 05:16:02;;;;;;;94.68;39.22;;;;;;;-6.89;100.00;101378.03;5083821;28;20067;-85
2022/01/11 05:18:47;;;;;;;93.20;38.53;;;;;;;-7.01;100.00;101373.72;5097954;28;20044;-85
2022/01/11 05:21:32;;;;;;;104.88;42.38;;;;;;;-7.04;100.00;101379.50;5069496;28;20345;-85
2022/01/11 05:24:17;;;;;;;88.55;37.33;;;;;;;-7.06;100.00;101373.41;5098404;28;20040;-85
2022/01/11 05:27:05;;;;;;;101.15;43.72;;;;;;;-7.04;100.00;101389.69;5097682;28;20036;-85
2022/01/11 05:29:50;;;;;;;103.20;41.92;;;;;;;-7.10;100.00;101386.69;5083366;28;20040;-85
2022/01/11 05:32:35;;;;;;;102.30;43.72;;;;;;;-7.27;100.00;101379.53;5097387;28;20449;-85
2022/01/11 05:35:22;;;;;;;105.53;43.20;;;;;;;-7.28;100.00;101393.91;5083380;28;20048;-85
2022/01/11 05:38:07;;;;;;;97.22;42.10;;;;;;;-7.29;100.00;101387.06;5097507;28;20390;-85
2022/01/11 05:40:51;;;;;;;97.78;41.00;;;;;;;-7.26;100.00;101400.00;5097430;28;20040;-86
2022/01/11 05:43:38;;;;;;;86.38;37.75;;;;;;;-7.38;100.00;101386.38;5083284;28;20039;-85
2022/01/11 05:46:23;;;;;;;94.25;36.28;;;;;;;-7.45;100.00;101396.91;5097339;28;20047;-85
2022/01/11 05:49:08;;;;;;;88.15;37.00;;;;;;;-7.50;100.00;101390.63;5083172;28;20121;-85
2022/01/11 05:51:53;;;;;;;81.63;33.03;;;;;;;-7.50;100.00;101406.78;5099084;28;20048;-84
2022/01/11 05:54:37;;;;;;;97.80;39.05;;;;;;;-7.55;100.00;101411.50;5118449;28;20043;-85
2022/01/11 05:57:21;;;;;;;96.43;37.00;;;;;;;-7.54;100.00;101408.22;5116311;28;20431;-85
2022/01/11 06:00:09;;;;;;;99.07;39.05;;;;;;;-7.56;100.00;101414.84;5088692;28;20036;-85
2022/01/11 06:02:58;;;;;;;102.50;40.15;;;;;;;-7.60;100.00;101405.22;5103500;28;20396;-85
2022/01/11 06:05:54;;;;;;;98.10;39.85;;;;;;;-7.57;100.00;101423.25;5090184;28;20042;-85
2022/01/11 06:08:40;;;;;;;92.72;37.20;;;;;;;-7.63;100.00;101420.25;5081088;28;20051;-77
2022/01/11 06:11:24;;;;;;;84.05;35.67;;;;;;;-7.78;100.00;101414.94;5111512;28;20036;-84
2022/01/11 06:14:08;;;;;;;88.47;36.85;;;;;;;-7.68;100.00;101430.88;5082190;28;20048;-84
2022/01/11 06:16:53;;;;;;;86.07;34.47;;;;;;;-7.70;100.00;101429.88;5107461;28;20056;-84
2022/01/11 06:19:38;;;;;;;102.95;37.13;;;;;;;-7.84;100.00;101436.47;5080677;28;20413;-84
2022/01/11 06:22:26;;;;;;;173.88;54.20;;;;;;;-8.04;100.00;101427.38;5094365;28;20043;-84
2022/01/11 06:25:11;;;;;;;144.27;49.25;;;;;;;-7.87;100.00;101436.25;5080548;28;20049;-84
2022/01/11 06:27:56;;;;;;;116.20;41.97;;;;;;;-7.89;100.00;101448.00;5080363;28;20612;-83
2022/01/11 06:30:40;;;;;;;109.90;39.60;;;;;;;-7.96;100.00;101445.75;5109039;28;20105;-84
2022/01/11 06:33:25;;;;;;;103.68;40.05;;;;;;;-7.91;100.00;101459.69;5080244;28;20115;-84
2022/01/11 06:36:12;;;;;;;88.55;37.03;;;;;;;-7.92;100.00;101455.41;5080181;28;20376;-83
2022/01/11 06:38:57;;;;;;;94.55;38.75;;;;;;;-8.02;100.00;101453.81;5080137;28;20051;-84
2022/01/11 06:41:46;;;;;;;86.85;38.08;;;;;;;-8.03;100.00;101457.09;5080858;28;20459;-78
2022/01/11 06:44:33;;;;;;;86.70;35.97;;;;;;;-8.02;100.00;101457.25;5079931;28;20055;-77
2022/01/11 06:47:18;;;;;;;92.93;39.78;;;;;;;-7.94;100.00;101467.97;5108565;28;20036;-77
2022/01/11 06:50:04;;;;;;;115.63;53.42;;;;;;;-7.98;100.00;101473.63;5108398;28;20386;-77
2022/01/11 06:52:50;;;;;;;132.05;60.97;;;;;;;-8.22;100.00;101459.94;5107659;28;20374;-77
2022/01/11 06:55:35;;;;;;;140.27;65.43;;;;;;;-8.16;100.00;101474.75;5079925;28;20040;-78
2022/01/11 06:58:20;;;;;;;144.75;65.10;;;;;;;-8.15;100.00;101459.63;5108588;28;20357;-77
2022/01/11 07:01:05;;;;;;;168.80;64.00;;;;;;;-8.11;100.00;101474.34;5081355;28;20044;-78
2022/01/11 07:03:50;;;;;;;151.93;61.75;;;;;;;-8.14;100.00;101475.78;5108257;28;20036;-77
2022/01/11 07:06:46;;;;;;;154.65;62.45;;;;;;;-8.10;100.00;101480.31;5094762;28;20044;-77
2022/01/11 07:09:31;;;;;;;164.20;61.65;;;;;;;-8.12;100.00;101479.34;5093720;28;20352;-77
2022/01/11 07:12:16;;;;;;;156.77;64.50;;;;;;;-7.97;100.00;101484.69;5093781;28;20039;-77
2022/01/11 07:15:01;;;;;;;145.65;59.03;;;;;;;-7.96;100.00;101481.34;5080024;28;20082;-78
2022/01/11 07:17:47;;;;;;;133.48;53.67;;;;;;;-7.96;100.00;101472.09;5077863;28;20055;-77
2022/01/11 07:20:33;;;;;;;116.40;50.30;;;;;;;-7.81;100.00;101485.94;5096223;28;20044;-78
2022/01/11 07:23:19;;;;;;;118.03;50.17;;;;;;;-7.83;100.00;101469.69;5095956;28;20040;-78
2022/01/11 07:26:07;;;;;;;181.70;56.20;;;;;;;-7.66;100.00;101485.31;5109856;28;20425;-78
2022/01/11 07:28:52;;;;;;;188.82;61.03;;;;;;;-7.73;100.00;101450.91;5067646;28;20400;-78
2022/01/11 07:31:38;;;;;;;192.38;65.55;;;;;;;-7.53;100.00;101478.72;5067514;28;20040;-78
2022/01/11 07:34:25;;;;;;;163.73;57.08;;;;;;;-7.37;100.00;101488.34;5110221;28;20044;-78
2022/01/11 07:37:09;;;;;;;149.60;51.20;;;;;;;-7.28;100.00;101477.94;5081334;28;20047;-78
2022/01/11 07:39:57;;;;;;;137.60;53.45;;;;;;;-7.05;100.00;101497.47;5081804;28;20123;-78
2022/01/11 07:42:42;;;;;;;137.95;51.20;;;;;;;-6.95;100.00;101486.28;5081689;28;20040;-78
2022/01/11 07:45:46;;;;;;;;;;;;;;;-6.76;100.00;101506.28;5084794;28;20133;-78
2022/01/11 07:48:34;;;;;;;170.48;60.15;;;;;;;-6.64;100.00;101502.94;5094911;28;20065;-78
2022/01/11 07:51:23;;;;;;;182.43;67.55;;;;;;;-6.45;100.00;101496.59;5081063;28;20056;-78
2022/01/11 07:54:08;;;;;;;197.38;73.53;;;;;;;-6.16;100.00;101498.63;5095376;28;20040;-78
2022/01/11 07:56:55;;;;;;;234.75;82.38;;;;;;;-5.87;100.00;101498.00;5081231;28;20380;-79
2022/01/11 07:59:39;;;;;;;222.07;84.85;;;;;;;-5.56;100.00;101493.28;5065491;28;20051;-77
2022/01/11 08:02:24;;;;;;;226.05;90.18;;;;;;;-5.24;100.00;101499.63;5093365;28;20044;-77
2022/01/11 08:05:09;;;;;;;237.18;90.00;;;;;;;-4.89;100.00;101503.56;5079135;28;20349;-77
2022/01/11 08:07:54;;;;;;;202.18;77.85;;;;;;;-4.55;100.00;101501.47;5107837;28;20411;-77
2022/01/11 08:10:44;;;;;;;202.27;80.38;;;;;;;-4.35;100.00;101489.94;5079148;28;20066;-77
2022/01/11 08:13:29;;;;;;;206.45;82.88;;;;;;;-4.04;100.00;101495.22;5090818;28;20055;-77
2022/01/11 08:16:14;;;;;;;192.15;84.60;;;;;;;-3.76;100.00;101503.78;5063692;28;20444;-77
2022/01/11 08:19:01;;;;;;;181.57;79.68;;;;;;;-3.53;100.00;101491.44;5065218;28;20040;-77
2022/01/11 08:21:47;;;;;;;183.57;81.70;;;;;;;-3.20;100.00;101496.75;5097233;28;20094;-77
2022/01/11 08:24:32;;;;;;;179.95;77.85;;;;;;;-2.91;100.00;101483.88;5097109;28;20044;-77
2022/01/11 08:27:19;;;;;;;197.75;79.68;;;;;;;-2.64;100.00;101476.81;5082870;28;20059;-77
2022/01/11 08:30:06;;;;;;;165.88;76.32;;;;;;;-2.56;100.00;101473.81;5065790;28;20447;-77
2022/01/11 08:32:52;;;;;;;170.32;74.18;;;;;;;-2.33;100.00;101483.63;5083620;28;20504;-77
2022/01/11 08:35:37;;;;;;;169.27;75.15;;;;;;;-2.09;100.00;101489.16;5098909;28;20066;-78
2022/01/11 08:38:23;;;;;;;149.85;65.47;;;;;;;-2.48;100.00;101481.09;5113247;28;20044;-78
2022/01/11 08:41:09;;;;;;;117.07;52.85;;;;;;;-1.85;100.00;101492.13;5098532;28;20040;-78
2022/01/11 08:43:55;;;;;;;89.45;42.15;;;;;;;-1.48;100.00;101492.31;5084346;28;20040;-78
2022/01/11 08:46:42;;;;;;;76.50;38.83;;;;;;;-1.23;100.00;101499.56;5084665;28;20127;-78
2022/01/11 08:49:33;;;;;;;71.07;35.53;;;;;;;-1.24;100.00;101486.63;5081458;28;20360;-78
2022/01/11 08:52:18;;;;;;;112.53;53.92;;;;;;;-0.87;100.00;101499.59;5067311;28;20056;-77
2022/01/11 08:55:04;;;;;;;130.10;68.50;;;;;;;-0.73;100.00;101508.84;5098199;28;20044;-78
2022/01/11 08:57:50;;;;;;;104.75;50.70;;;;;;;-0.77;100.00;101514.66;5096666;28;20044;-77
2022/01/11 09:00:37;;;;;;;106.35;50.42;;;;;;;-0.76;100.00;101505.25;5082159;28;20101;-78
2022/01/11 09:03:27;;;;;;;104.60;49.78;;;;;;;-0.66;100.00;101506.56;5082125;28;20052;-78
2022/01/11 09:06:11;;;;;;;87.80;40.10;;;;;;;-0.42;100.00;101518.03;5096283;28;20395;-78
2022/01/11 09:08:57;;;;;;;80.72;38.42;;;;;;;-0.51;100.00;101515.88;5096107;28;20044;-78
2022/01/11 09:11:42;;;;;;;68.20;35.40;;;;;;;-0.36;100.00;101500.25;5082021;28;20040;-78
2022/01/11 09:14:28;;;;;;;71.03;35.00;;;;;;;-0.12;100.00;101513.38;5081934;28;20051;-78
2022/01/11 09:17:13;;;;;;;88.15;40.25;;;;;;;-0.36;100.00;101520.84;5096101;28;20429;-78
2022/01/11 09:19:59;;;;;;;79.30;38.78;;;;;;;-0.50;100.00;101532.22;5081871;28;20043;-78
2022/01/11 09:22:44;;;;;;;89.32;42.30;;;;;;;-0.73;100.00;101523.41;5081855;28;20047;-78
2022/01/11 09:25:29;;;;;;;82.32;39.78;;;;;;;-0.32;100.00;101511.59;5110519;28;20036;-78
2022/01/11 09:28:20;;;;;;;75.00;39.58;;;;;;;0.05;100.00;101528.72;5082947;28;20486;-78
2022/01/11 09:31:05;;;;;;;74.10;35.58;;;;;;;0.12;100.00;101530.75;5083875;28;20036;-78
2022/01/11 09:33:50;;;;;;;80.30;38.22;;;;;;;0.23;100.00;101526.97;5084130;28;20036;-79
2022/01/11 09:36:35;;;;;;;153.32;58.58;;;;;;;0.22;100.00;101528.63;5112717;28;20036;-78
2022/01/11 09:39:20;;;;;;;70.60;35.35;;;;;;;0.11;100.00;101532.44;5083493;28;20090;-79
2022/01/11 09:42:06;;;;;;;76.78;35.80;;;;;;;0.23;100.00;101507.22;5098132;28;20413;-79
2022/01/11 09:44:53;;;;;;;63.22;32.90;;;;;;;0.41;100.00;101534.59;5112167;28;20432;-79
2022/01/11 09:47:39;;;;;;;152.02;61.83;;;;;;;0.73;100.00;101530.81;5069419;28;20043;-78
2022/01/11 09:50:24;;;;;;;91.30;39.60;;;;;;;0.46;100.00;101528.84;5083509;28;20101;-78
2022/01/11 09:53:18;;;;;;;77.20;39.42;;;;;;;0.81;100.00;101524.28;5062630;28;20338;-79
2022/01/11 09:56:08;;;;;;;75.07;38.65;;;;;;;0.86;100.00;101525.34;5063584;28;20055;-79
2022/01/11 09:58:56;;;;;;;60.40;31.40;;;;;;;1.01;100.00;101519.06;5077630;28;20040;-79
2022/01/11 10:02:13;;;;;;;61.72;30.08;;;;;;;0.96;100.00;101518.00;5061827;28;20060;-79
2022/01/11 10:05:11;;;;;;;125.40;45.30;;;;;;;0.50;100.00;101523.81;5076887;28;20388;-79
2022/01/11 10:07:55;;;;;;;71.53;34.47;;;;;;;0.21;100.00;101521.72;5077446;28;20137;-79
2022/01/11 10:10:45;;;;;;;67.78;34.47;;;;;;;0.47;100.00;101525.44;5091266;28;20052;-79
2022/01/11 10:13:32;;;;;;;65.07;32.20;;;;;;;0.72;100.00;101526.50;5063000;28;20040;-79
2022/01/11 10:16:27;;;;;;;61.50;30.85;;;;;;;0.79;100.00;101528.50;5077264;28;20051;-79
2022/01/11 10:19:28;;;;;;;78.90;36.58;;;;;;;1.03;100.00;101527.75;5063500;28;20047;-79
2022/01/11 10:22:20;;;;;;;60.75;30.77;;;;;;;1.03;100.00;101526.03;5077124;28;20409;-79
2022/01/11 10:25:05;;;;;;;60.42;30.55;;;;;;;1.07;100.00;101525.38;5062385;28;20064;-79
2022/01/11 10:27:58;;;;;;;66.10;32.55;;;;;;;1.02;100.00;101531.16;5076994;28;20051;-79
2022/01/11 10:30:43;;;;;;;57.88;29.35;;;;;;;1.15;100.00;101530.84;5076381;28;20037;-79
2022/01/11 10:33:28;;;;;;;61.17;30.00;;;;;;;1.01;100.00;101516.47;5076566;28;20060;-79
2022/01/11 10:36:13;;;;;;;61.13;31.23;;;;;;;1.10;100.00;101540.94;5090581;28;20056;-79
2022/01/11 10:39:31;;;;;;;52.72;28.48;;;;;;;1.28;100.00;101538.25;5063492;28;20041;-79
2022/01/11 10:42:32;;;;;;;48.25;25.35;;;;;;;1.43;100.00;101534.50;5089809;28;20076;-79
2022/01/11 10:45:25;;;;;;;47.70;25.17;;;;;;;1.33;100.00;101530.69;5076293;28;20048;-77
2022/01/11 10:48:21;;;;;;;54.88;28.63;;;;;;;1.33;100.00;101528.09;5076065;28;20051;-77
2022/01/11 10:51:14;;;;;;;45.95;24.02;;;;;;;1.38;100.00;101530.03;5075891;28;20043;-78
2022/01/11 10:54:00;;;;;;;40.92;22.05;;;;;;;1.09;100.00;101528.00;5075395;28;20060;-77
2022/01/11 10:56:45;;;;;;;36.20;20.27;;;;;;;1.35;100.00;101535.09;5061480;28;20044;-78
2022/01/11 10:59:29;;;;;;;34.75;19.48;;;;;;;1.09;100.00;101531.47;5075807;28;20120;-76
2022/01/11 11:02:26;;;;;;;41.08;22.42;;;;;;;1.22;100.00;101537.13;5074249;28;20133;-77
2022/01/11 11:05:17;;;;;;;50.55;25.25;;;;;;;1.28;100.00;101550.28;5073659;28;20044;-77
2022/01/11 11:08:14;;;;;;;42.50;21.15;;;;;;;0.97;100.00;101546.44;5073804;28;20036;-77
2022/01/11 11:11:10;;;;;;;34.95;20.00;;;;;;;1.15;100.00;101547.19;5060642;28;20037;-78
2022/01/11 11:13:58;;;;;;;37.83;20.50;;;;;;;1.07;100.00;101534.78;5073680;28;20041;-77
2022/01/11 11:16:44;;;;;;;33.35;19.00;;;;;;;1.14;100.00;101532.53;5059492;28;20290;-77
2022/01/11 11:19:54;;;;;;;33.45;18.60;;;;;;;1.19;100.00;101544.75;5073505;28;20037;-77
2022/01/11 11:22:41;;;;;;;43.05;22.42;;;;;;;1.02;100.00;101516.56;5073459;28;20043;-77
2022/01/11 11:25:26;;;;;;;45.65;20.40;;;;;;;1.10;100.00;101540.94;5073355;28;20041;-77
2022/01/11 11:28:11;;;;;;;40.30;19.70;;;;;;;1.04;100.00;101504.59;5073482;28;20036;-78
2022/01/11 11:30:56;;;;;;;47.97;22.38;;;;;;;0.97;100.00;101530.06;5073513;28;20044;-77
2022/01/11 11:33:42;;;;;;;49.65;24.67;;;;;;;1.03;100.00;101533.78;5074305;28;20040;-77
2022/01/11 11:36:29;;;;;;;43.25;23.33;;;;;;;1.16;100.00;101530.88;5074595;28;20048;-77
2022/01/11 11:39:19;;;;;;;51.85;24.48;;;;;;;1.33;100.00;101518.69;5090013;28;20037;-78
2022/01/11 11:42:05;;;;;;;59.10;27.65;;;;;;;1.47;100.00;101519.22;5089404;28;20392;-78
2022/01/11 11:44:51;;;;;;;74.45;37.97;;;;;;;1.45;100.00;101530.28;5075851;28;20037;-77
2022/01/11 11:47:35;;;;;;;102.03;50.00;;;;;;;1.26;100.00;101516.66;5089807;28;20345;-78
2022/01/11 11:50:22;;;;;;;98.65;48.95;;;;;;;1.22;100.00;101512.19;5075687;28;20036;-78
2022/01/11 11:53:20;;;;;;;130.20;59.67;;;;;;;1.08;100.00;101521.97;5089181;28;20182;-78
2022/01/11 11:56:20;;;;;;;280.02;109.32;;;;;;;1.06;100.00;101512.38;5080441;28;20044;-78
2022/01/11 11:59:09;;;;;;;134.70;55.08;;;;;;;1.12;100.00;101531.59;5079883;28;20037;-78
2022/01/11 12:01:58;;;;;;;103.75;47.20;;;;;;;0.78;100.00;101516.44;5079136;28;20044;-78
2022/01/11 12:04:53;;;;;;;77.60;35.90;;;;;;;0.68;100.00;101533.22;5080243;28;20420;-78
2022/01/11 12:07:46;;;;;;;65.22;31.88;;;;;;;0.64;100.00;101535.59;5064869;28;20047;-78
2022/01/11 12:10:52;;;;;;;60.33;30.20;;;;;;;0.66;100.00;101528.81;5079661;28;20060;-78
2022/01/11 12:13:53;;;;;;;64.38;31.02;;;;;;;0.66;100.00;101524.53;5079015;28;20036;-78
2022/01/11 12:16:40;;;;;;;66.97;32.28;;;;;;;0.62;100.00;101529.50;5078755;28;20041;-78
2022/01/11 12:19:42;;;;;;;58.15;30.70;;;;;;;0.33;100.00;101517.94;5064941;28;20060;-78
2022/01/11 12:22:30;;;;;;;61.60;29.88;;;;;;;0.23;100.00;101520.09;5079125;28;20037;-78
2022/01/11 12:25:29;;;;;;;63.45;30.98;;;;;;;0.30;100.00;101510.94;5079037;28;20423;-78
2022/01/11 12:28:17;;;;;;;61.03;26.58;;;;;;;0.29;100.00;101511.75;5093338;28;20056;-78
2022/01/11 12:31:24;;;;;;;65.85;31.65;;;;;;;0.33;100.00;101513.66;5079010;28;20070;-78
2022/01/11 12:34:10;;;;;;;64.53;30.30;;;;;;;0.45;100.00;101510.72;5092705;28;20040;-78
2022/01/11 12:36:57;;;;;;;63.58;30.30;;;;;;;0.45;100.00;101513.28;5079163;28;20040;-77
2022/01/11 12:40:17;;;;;;;72.35;31.30;;;;;;;0.39;100.00;101513.03;5064787;28;20040;-78